createdAt,value
2019-04-27T00:00:43.297Z,85.80
2019-04-27T00:03:35.034Z,86.10
2019-04-27T00:06:08.614Z,86.40
2019-04-27T00:08:44.539Z,86.70
2019-04-27T00:11:23.013Z,87.20
2019-04-27T00:13:53.750Z,87.40
2019-04-27T00:16:47.121Z,87.70
2019-04-27T00:19:18.494Z,88.10
2019-04-27T00:22:08.975Z,88.50
2019-04-27T00:24:39.660Z,88.80
2019-04-27T00:27:10.087Z,89.10
2019-04-27T00:29:40.432Z,89.40
2019-04-27T00:32:10.941Z,89.70
2019-04-27T00:34:43.020Z,89.80
2019-04-27T00:37:17.414Z,89.90
2019-04-27T00:40:04.542Z,90.00
2019-04-27T00:42:35.705Z,90.10
2019-04-27T00:45:08.140Z,90.10
2019-04-27T00:47:38.487Z,90.20
2019-04-27T00:50:09.938Z,90.20
2019-04-27T00:52:40.271Z,90.10
2019-04-27T00:55:10.669Z,90.20
2019-04-27T00:57:43.507Z,90.30
2019-04-27T01:00:33.724Z,90.30
2019-04-27T01:03:11.535Z,90.40
2019-04-27T01:05:43.056Z,90.50
2019-04-27T01:08:13.880Z,90.60
2019-04-27T01:10:44.343Z,90.70
2019-04-27T01:13:14.691Z,90.70
2019-04-27T01:15:45.041Z,90.80
2019-04-27T01:18:15.695Z,90.90
2019-04-27T01:20:46.085Z,90.90
2019-04-27T01:23:16.423Z,91.00
2019-04-27T01:25:48.850Z,91.00
2019-04-27T01:28:29.137Z,91.00
2019-04-27T01:31:02.079Z,91.10
2019-04-27T01:33:32.422Z,91.70
2019-04-27T01:36:02.756Z,91.80
2019-04-27T01:38:33.084Z,91.80
2019-04-27T01:41:03.486Z,91.90
2019-04-27T01:43:33.808Z,91.90
2019-04-27T01:46:04.220Z,92.10
2019-04-27T01:48:34.566Z,92.10
2019-04-27T01:51:05.229Z,92.20
2019-04-27T01:53:35.559Z,92.30
2019-04-27T01:56:05.977Z,92.40
2019-04-27T01:58:36.333Z,92.40
2019-04-27T02:01:18.737Z,92.40
2019-04-27T02:03:50.773Z,92.40
2019-04-27T02:06:21.128Z,92.40
2019-04-27T02:08:51.457Z,91.80
2019-04-27T02:11:21.804Z,91.80
2019-04-27T02:13:52.137Z,91.80
2019-04-27T02:16:22.477Z,91.70
2019-04-27T02:18:52.821Z,91.60
2019-04-27T02:21:23.162Z,91.60
2019-04-27T02:23:53.496Z,91.50
2019-04-27T02:26:25.315Z,91.50
2019-04-27T02:29:05.953Z,91.50
2019-04-27T02:31:56.012Z,91.40
2019-04-27T02:34:44.166Z,91.30
2019-04-27T02:37:15.961Z,91.20
2019-04-27T02:39:46.289Z,91.10
2019-04-27T02:42:16.623Z,91.20
2019-04-27T02:44:49.129Z,91.20
2019-04-27T02:47:20.792Z,91.20
2019-04-27T02:49:51.382Z,91.10
2019-04-27T02:52:23.377Z,91.10
2019-04-27T02:54:53.712Z,91.00
2019-04-27T02:57:24.057Z,90.90
2019-04-27T02:59:54.394Z,90.90
2019-04-27T03:02:26.393Z,90.90
2019-04-27T03:04:56.740Z,91.00
2019-04-27T03:07:27.066Z,90.80
2019-04-27T03:09:59.600Z,90.90
2019-04-27T03:12:31.083Z,90.90
2019-04-27T03:15:12.381Z,90.80
2019-04-27T03:17:44.392Z,90.80
2019-04-27T03:20:20.168Z,90.80
2019-04-27T03:23:00.055Z,90.70
2019-04-27T03:25:32.731Z,90.80
2019-04-27T03:28:10.902Z,91.00
2019-04-27T03:30:43.016Z,91.10
2019-04-27T03:33:13.580Z,91.20
2019-04-27T03:35:44.350Z,91.30
2019-04-27T03:38:15.026Z,91.10
2019-04-27T03:40:45.368Z,91.30
2019-04-27T03:43:19.744Z,91.40
2019-04-27T03:45:52.175Z,91.40
2019-04-27T03:48:21.585Z,91.30
2019-04-27T03:50:56.572Z,91.40
2019-04-27T03:53:34.391Z,91.40
2019-04-27T03:56:12.524Z,91.50
2019-04-27T03:58:56.588Z,91.50
2019-04-27T04:01:26.927Z,91.50
2019-04-27T04:03:59.746Z,91.40
2019-04-27T04:06:29.781Z,91.40
2019-04-27T04:09:00.441Z,91.30
2019-04-27T04:11:34.143Z,91.20
2019-04-27T04:14:21.155Z,91.10
2019-04-27T04:16:59.156Z,91.10
2019-04-27T04:19:31.567Z,90.80
2019-04-27T04:22:00.069Z,90.60
2019-04-27T04:24:31.807Z,90.70
2019-04-27T04:27:02.331Z,90.40
2019-04-27T04:29:32.675Z,90.50
2019-04-27T04:32:03.022Z,90.40
2019-04-27T04:34:33.355Z,90.30
2019-04-27T04:37:04.086Z,90.30
2019-04-27T04:39:34.439Z,90.50
2019-04-27T04:42:06.500Z,90.60
2019-04-27T04:44:44.257Z,90.70
2019-04-27T04:47:16.256Z,90.80
2019-04-27T04:49:46.596Z,91.10
2019-04-27T04:52:19.555Z,91.20
2019-04-27T04:54:49.669Z,91.30
2019-04-27T04:57:21.842Z,91.40
2019-04-27T04:59:52.127Z,91.70
2019-04-27T05:02:22.467Z,91.70
2019-04-27T05:04:52.812Z,91.90
2019-04-27T05:07:23.161Z,92.00
2019-04-27T05:09:53.567Z,92.10
2019-04-27T05:12:23.898Z,92.20
2019-04-27T05:14:54.254Z,92.40
2019-04-27T05:17:24.594Z,92.60
2019-04-27T05:19:56.174Z,92.80
2019-04-27T05:22:26.516Z,93.00
2019-04-27T05:25:03.117Z,93.10
2019-04-27T05:27:33.459Z,93.20
2019-04-27T05:30:04.663Z,93.20
2019-04-27T05:32:35.019Z,93.40
2019-04-27T05:35:06.456Z,93.80
2019-04-27T05:37:38.876Z,93.40
2019-04-27T05:40:09.264Z,93.50
2019-04-27T05:42:39.827Z,93.50
2019-04-27T05:45:19.974Z,93.50
2019-04-27T05:47:55.163Z,93.50
2019-04-27T05:50:35.505Z,93.70
2019-04-27T05:52:59.592Z,93.80
2019-04-27T05:55:29.565Z,94.00
2019-04-27T05:58:00.169Z,94.10
2019-04-27T06:00:30.523Z,94.40
2019-04-27T06:03:00.854Z,94.40
2019-04-27T06:05:31.207Z,94.60
2019-04-27T06:08:01.549Z,94.70
2019-04-27T06:10:31.896Z,94.80
2019-04-27T06:13:02.227Z,94.80
2019-04-27T06:15:32.574Z,94.90
2019-04-27T06:18:02.912Z,94.90
2019-04-27T06:20:33.253Z,95.00
2019-04-27T06:23:03.585Z,95.00
2019-04-27T06:25:33.950Z,95.00
2019-04-27T06:28:04.293Z,95.10
2019-04-27T06:30:34.639Z,95.20
2019-04-27T06:33:04.983Z,95.30
2019-04-27T06:35:47.249Z,95.50
2019-04-27T06:38:19.051Z,95.30
2019-04-27T06:40:49.417Z,95.20
2019-04-27T06:43:19.765Z,95.20
2019-04-27T06:45:50.123Z,95.00
2019-04-27T06:48:20.458Z,95.30
2019-04-27T06:51:02.740Z,94.80
2019-04-27T06:53:23.673Z,94.70
2019-04-27T06:55:54.019Z,94.90
2019-04-27T06:58:24.366Z,94.90
2019-04-27T07:00:54.722Z,95.00
2019-04-27T07:03:25.058Z,95.10
2019-04-27T07:05:55.407Z,95.00
2019-04-27T07:08:25.756Z,95.00
2019-04-27T07:10:56.168Z,95.10
2019-04-27T07:13:26.519Z,95.20
2019-04-27T07:15:56.886Z,95.30
2019-04-27T07:18:28.572Z,95.30
2019-04-27T07:20:59.060Z,95.20
2019-04-27T07:23:29.413Z,95.20
2019-04-27T07:25:59.975Z,95.20
2019-04-27T07:28:30.279Z,95.30
2019-04-27T07:31:00.631Z,95.40
2019-04-27T07:33:30.973Z,95.20
2019-04-27T07:36:02.868Z,95.30
2019-04-27T07:38:34.384Z,94.60
2019-04-27T07:41:04.737Z,94.80
2019-04-27T07:43:49.396Z,94.50
2019-04-27T07:46:19.760Z,94.00
2019-04-27T07:48:50.924Z,94.00
2019-04-27T07:51:31.547Z,94.00
2019-04-27T07:53:53.368Z,93.60
2019-04-27T07:56:23.702Z,93.90
2019-04-27T07:58:54.036Z,93.90
2019-04-27T08:01:24.373Z,92.90
2019-04-27T08:03:54.708Z,91.70
2019-04-27T08:06:25.049Z,91.20
2019-04-27T08:08:55.386Z,91.70
2019-04-27T08:11:25.727Z,91.80
2019-04-27T08:13:56.081Z,91.40
2019-04-27T08:16:26.425Z,90.80
2019-04-27T08:18:56.806Z,90.30
2019-04-27T08:21:28.836Z,90.80
2019-04-27T08:23:59.304Z,90.00
2019-04-27T08:26:31.273Z,90.00
2019-04-27T08:29:03.264Z,90.20
2019-04-27T08:31:35.246Z,90.60
2019-04-27T08:34:08.568Z,87.30
2019-04-27T08:36:38.946Z,87.70
2019-04-27T08:39:09.481Z,87.40
2019-04-27T08:41:39.893Z,88.50
2019-04-27T08:44:10.237Z,88.60
2019-04-27T08:46:40.584Z,84.80
2019-04-27T08:49:10.918Z,82.80
2019-04-27T08:51:41.543Z,83.70
2019-04-27T08:54:12.003Z,83.50
2019-04-27T08:56:42.346Z,84.30
2019-04-27T08:59:12.698Z,85.20
2019-04-27T09:01:43.036Z,85.20
2019-04-27T09:04:13.423Z,85.00
2019-04-27T09:06:45.372Z,85.40
2019-04-27T09:12:20.675Z,82.80
2019-04-27T09:14:52.655Z,83.30
2019-04-27T09:17:27.039Z,83.10
2019-04-27T09:19:59.605Z,82.10
2019-04-27T09:22:31.241Z,80.90
2019-04-27T09:25:01.610Z,80.30
2019-04-27T09:27:32.914Z,79.40
2019-04-27T09:30:03.834Z,81.20
2019-04-27T09:32:35.417Z,79.00
2019-04-27T09:35:07.741Z,77.20
2019-04-27T09:37:38.111Z,76.70
2019-04-27T09:40:08.678Z,75.00
2019-04-27T09:42:39.025Z,75.70
2019-04-27T09:45:10.676Z,74.10
2019-04-27T09:47:41.013Z,75.50
2019-04-27T09:50:11.770Z,72.80
2019-04-27T09:52:42.116Z,71.90
2019-04-27T09:55:12.691Z,71.90
2019-04-27T09:57:43.102Z,73.90
2019-04-27T10:00:15.932Z,72.40
2019-04-27T10:02:46.648Z,71.90
2019-04-27T10:05:17.228Z,72.80
2019-04-27T10:07:47.748Z,72.20
2019-04-27T10:10:20.242Z,72.30
2019-04-27T10:12:50.576Z,68.90
2019-04-27T10:15:20.920Z,67.30
2019-04-27T10:17:51.251Z,69.80
2019-04-27T10:20:21.611Z,66.10
2019-04-27T10:22:52.093Z,66.30
2019-04-27T10:25:24.224Z,65.90
2019-04-27T10:28:00.268Z,65.20
2019-04-27T10:30:31.924Z,64.90
2019-04-27T10:33:02.276Z,63.50
2019-04-27T10:35:32.616Z,65.60
2019-04-27T10:38:03.001Z,64.50
2019-04-27T10:40:33.299Z,65.30
2019-04-27T10:43:03.656Z,64.10
2019-04-27T10:45:35.808Z,65.80
2019-04-27T10:48:06.027Z,65.60
2019-04-27T10:50:36.634Z,63.60
2019-04-27T10:53:08.176Z,66.40
2019-04-27T10:55:38.510Z,66.80
2019-04-27T10:58:08.849Z,66.20
2019-04-27T11:00:43.687Z,66.90
2019-04-27T11:03:16.620Z,67.50
2019-04-27T11:05:54.948Z,66.10
2019-04-27T11:08:25.283Z,67.50
2019-04-27T11:10:56.384Z,62.80
2019-04-27T11:13:27.038Z,64.20
2019-04-27T11:15:57.454Z,66.10
2019-04-27T11:18:28.772Z,62.50
2019-04-27T11:20:59.128Z,63.00
2019-04-27T11:23:29.463Z,62.50
2019-04-27T11:26:02.377Z,62.30
2019-04-27T11:28:32.211Z,63.40
2019-04-27T11:31:02.556Z,58.40
2019-04-27T11:33:32.905Z,60.10
2019-04-27T11:36:08.012Z,61.90
2019-04-27T11:38:38.300Z,67.70
2019-04-27T11:41:08.638Z,72.10
2019-04-27T11:43:38.969Z,74.50
2019-04-27T11:46:09.324Z,76.40
2019-04-27T11:48:39.660Z,81.40
2019-04-27T11:51:11.063Z,82.70
2019-04-27T11:53:41.540Z,79.00
2019-04-27T11:56:12.877Z,79.90
2019-04-27T11:58:43.222Z,80.40
2019-04-27T12:01:13.569Z,80.00
2019-04-27T12:03:44.541Z,80.10
2019-04-27T12:06:15.785Z,81.70
2019-04-27T12:08:46.207Z,81.50
2019-04-27T12:11:16.610Z,82.70
2019-04-27T12:13:47.269Z,83.70
2019-04-27T12:16:17.745Z,84.40
2019-04-27T12:18:49.222Z,82.70
2019-04-27T12:21:19.662Z,82.90
2019-04-27T12:23:50.003Z,82.30
2019-04-27T12:26:27.759Z,81.00
2019-04-27T12:28:59.848Z,78.70
2019-04-27T12:31:31.858Z,79.70
2019-04-27T12:34:02.202Z,80.90
2019-04-27T12:36:32.558Z,80.20
2019-04-27T12:39:03.267Z,78.20
2019-04-27T12:41:35.386Z,75.70
2019-04-27T12:44:07.816Z,77.90
2019-04-27T12:46:38.218Z,78.90
2019-04-27T12:49:08.889Z,80.80
2019-04-27T12:51:39.322Z,79.40
2019-04-27T12:54:11.373Z,79.40
2019-04-27T12:56:46.250Z,79.70
2019-04-27T12:59:18.229Z,78.70
2019-04-27T13:01:48.560Z,77.70
2019-04-27T13:04:18.909Z,80.80
2019-04-27T13:06:49.255Z,80.00
2019-04-27T13:09:19.598Z,79.90
2019-04-27T13:11:49.933Z,80.30
2019-04-27T13:14:20.294Z,76.10
2019-04-27T13:16:50.635Z,76.40
2019-04-27T13:19:20.972Z,78.40
2019-04-27T13:21:51.309Z,77.20
2019-04-27T13:24:21.649Z,72.30
2019-04-27T13:26:51.978Z,74.00
2019-04-27T13:29:22.310Z,71.10
2019-04-27T13:31:52.653Z,72.60
2019-04-27T13:34:22.991Z,72.00
2019-04-27T13:36:53.706Z,73.60
2019-04-27T13:39:25.766Z,74.90
2019-04-27T13:41:56.380Z,75.00
2019-04-27T13:44:26.793Z,75.40
2019-04-27T13:47:17.177Z,73.20
2019-04-27T13:50:01.156Z,73.80
2019-04-27T13:52:31.562Z,73.30
2019-04-27T13:55:01.905Z,72.20
2019-04-27T13:57:32.246Z,73.70
2019-04-27T14:00:02.602Z,72.40
2019-04-27T14:02:34.934Z,71.60
2019-04-27T14:05:07.335Z,71.70
2019-04-27T14:07:40.630Z,72.80
2019-04-27T14:10:10.126Z,72.00
2019-04-27T14:12:40.462Z,73.10
2019-04-27T14:15:10.940Z,72.50
2019-04-27T14:17:41.350Z,73.20
2019-04-27T14:20:11.764Z,71.90
2019-04-27T14:22:42.108Z,72.80
2019-04-27T14:25:12.520Z,71.60
2019-04-27T14:27:42.862Z,72.70
2019-04-27T14:30:15.644Z,71.20
2019-04-27T14:32:46.024Z,69.80
2019-04-27T14:35:18.031Z,70.60
2019-04-27T14:37:50.295Z,71.60
2019-04-27T14:40:21.725Z,72.00
2019-04-27T14:42:53.672Z,73.10
2019-04-27T14:45:25.336Z,72.40
2019-04-27T14:47:55.632Z,72.20
2019-04-27T14:50:25.987Z,71.10
2019-04-27T14:52:59.001Z,71.50
2019-04-27T14:55:30.125Z,70.30
2019-04-27T14:58:00.516Z,71.90
2019-04-27T15:00:30.862Z,72.60
2019-04-27T15:03:01.215Z,71.40
2019-04-27T15:05:31.613Z,71.40
2019-04-27T15:08:08.138Z,70.80
2019-04-27T15:10:36.110Z,70.50
2019-04-27T15:13:07.952Z,70.80
2019-04-27T15:15:40.106Z,70.90
2019-04-27T15:18:10.456Z,72.80
2019-04-27T15:20:46.611Z,72.70
2019-04-27T15:23:17.089Z,73.60
2019-04-27T15:25:47.455Z,73.70
2019-04-27T15:28:19.421Z,73.10
2019-04-27T15:30:54.078Z,72.70
2019-04-27T15:33:42.230Z,73.50
2019-04-27T15:36:30.619Z,74.90
2019-04-27T15:39:03.520Z,77.20
2019-04-27T15:41:35.589Z,78.70
2019-04-27T15:44:06.960Z,79.40
2019-04-27T15:46:49.845Z,80.80
2019-04-27T15:49:20.182Z,81.20
2019-04-27T15:51:54.381Z,82.10
2019-04-27T15:54:29.079Z,82.50
2019-04-27T15:56:54.627Z,82.50
2019-04-27T15:59:32.734Z,82.90
2019-04-27T16:02:00.172Z,81.30
2019-04-27T16:04:30.506Z,81.80
2019-04-27T16:07:00.844Z,81.70
2019-04-27T16:09:31.195Z,81.30
2019-04-27T16:12:09.921Z,79.80
2019-04-27T16:14:36.370Z,76.70
2019-04-27T16:17:08.136Z,77.50
2019-04-27T16:19:40.673Z,78.70
2019-04-27T16:22:09.888Z,80.90
2019-04-27T16:24:40.241Z,82.50
2019-04-27T16:27:10.581Z,83.40
2019-04-27T16:29:40.926Z,85.70
2019-04-27T16:32:11.567Z,85.00
2019-04-27T16:34:41.982Z,84.90
2019-04-27T16:37:18.370Z,85.70
2019-04-27T16:39:47.510Z,86.10
2019-04-27T16:42:18.610Z,84.60
2019-04-27T16:44:53.049Z,85.90
2019-04-27T16:47:24.481Z,86.60
2019-04-27T16:49:53.297Z,85.60
2019-04-27T16:52:23.642Z,86.70
2019-04-27T16:54:57.563Z,87.00
2019-04-27T16:57:28.123Z,86.80
2019-04-27T17:00:01.055Z,86.40
2019-04-27T17:02:30.543Z,86.40
2019-04-27T17:05:00.906Z,86.90
2019-04-27T17:07:37.435Z,86.70
2019-04-27T17:10:04.714Z,86.30
2019-04-27T17:12:44.689Z,85.70
2019-04-27T17:15:28.239Z,84.80
2019-04-27T17:18:19.989Z,84.80
2019-04-27T17:20:59.266Z,84.10
2019-04-27T17:23:31.156Z,84.00
2019-04-27T17:26:06.251Z,83.40
2019-04-27T17:28:37.459Z,84.80
2019-04-27T17:31:08.551Z,86.20
2019-04-27T17:33:40.366Z,86.20
2019-04-27T17:36:12.178Z,88.00
2019-04-27T17:38:47.235Z,89.00
2019-04-27T17:41:14.818Z,89.30
2019-04-27T17:43:45.169Z,89.80
2019-04-27T17:46:15.552Z,89.80
2019-04-27T17:48:45.893Z,90.00
2019-04-27T17:51:16.233Z,90.10
2019-04-27T17:53:49.681Z,90.20
2019-04-27T17:56:18.709Z,90.10
2019-04-27T17:58:49.041Z,89.30
2019-04-27T18:01:23.391Z,89.90
2019-04-27T18:03:59.083Z,90.00
2019-04-27T18:06:24.468Z,89.90
2019-04-27T18:09:00.728Z,89.50
2019-04-27T18:11:28.787Z,89.10
2019-04-27T18:14:00.360Z,88.50
2019-04-27T18:16:34.367Z,87.50
2019-04-27T18:19:08.311Z,87.90
2019-04-27T18:21:38.694Z,87.40
2019-04-27T18:24:13.595Z,87.70
2019-04-27T18:26:51.983Z,87.50
2019-04-27T18:29:22.920Z,87.70
2019-04-27T18:31:54.594Z,88.20
2019-04-27T18:34:25.893Z,89.10
2019-04-27T18:36:56.238Z,90.00
2019-04-27T18:39:26.586Z,90.00
2019-04-27T18:41:58.492Z,89.80
2019-04-27T18:44:31.855Z,89.80
2019-04-27T18:47:02.412Z,89.60
2019-04-27T18:49:51.998Z,89.80
2019-04-27T18:52:26.933Z,89.80
2019-04-27T18:54:57.272Z,89.90
2019-04-27T18:57:27.997Z,89.50
2019-04-27T18:59:59.653Z,89.10
2019-04-27T19:02:50.399Z,89.20
2019-04-27T19:05:20.926Z,89.40
2019-04-27T19:07:51.255Z,89.00
2019-04-27T19:10:21.838Z,89.20
2019-04-27T19:12:52.175Z,88.70
2019-04-27T19:15:22.507Z,86.90
2019-04-27T19:17:52.855Z,86.70
2019-04-27T19:20:23.188Z,87.60
2019-04-27T19:22:53.517Z,87.80
2019-04-27T19:25:28.808Z,87.90
2019-04-27T19:28:08.400Z,86.90
2019-04-27T19:30:40.830Z,86.70
2019-04-27T19:33:11.171Z,86.60
2019-04-27T19:35:41.507Z,86.10
2019-04-27T19:38:11.903Z,86.50
2019-04-27T19:40:42.249Z,85.80
2019-04-27T19:43:12.670Z,85.40
2019-04-27T19:45:43.069Z,85.30
2019-04-27T19:48:13.691Z,84.40
2019-04-27T19:50:44.036Z,84.20
2019-04-27T19:53:14.375Z,84.50
2019-04-27T19:55:46.358Z,83.80
2019-04-27T19:58:19.675Z,82.30
2019-04-27T20:00:50.830Z,82.50
2019-04-27T20:03:22.877Z,82.40
2019-04-27T20:05:53.470Z,81.70
2019-04-27T20:08:25.448Z,81.80
2019-04-27T20:10:56.134Z,82.50
2019-04-27T20:13:26.477Z,79.80
2019-04-27T20:15:57.556Z,78.10
2019-04-27T20:18:28.035Z,79.10
2019-04-27T20:20:58.374Z,80.30
2019-04-27T20:23:28.713Z,80.20
2019-04-27T20:25:59.054Z,80.50
2019-04-27T20:28:31.438Z,81.10
2019-04-27T20:31:02.804Z,80.80
2019-04-27T20:33:34.205Z,83.20
2019-04-27T20:36:04.616Z,85.70
2019-04-27T20:38:34.943Z,87.60
2019-04-27T20:41:17.860Z,88.90
2019-04-27T20:43:48.183Z,89.80
2019-04-27T20:46:22.517Z,90.00
2019-04-27T20:48:51.614Z,90.20
2019-04-27T20:51:23.593Z,90.30
2019-04-27T20:53:55.561Z,90.50
2019-04-27T20:56:25.885Z,90.60
2019-04-27T20:58:56.221Z,90.70
2019-04-27T21:01:26.546Z,90.70
2019-04-27T21:03:58.525Z,90.80
2019-04-27T21:06:41.008Z,90.90
2019-04-27T21:09:13.746Z,90.90
2019-04-27T21:11:47.714Z,91.00
2019-04-27T21:14:18.124Z,91.20
2019-04-27T21:16:49.023Z,91.20
2019-04-27T21:19:31.388Z,91.20
2019-04-27T21:22:01.659Z,91.30
2019-04-27T21:24:31.997Z,91.50
2019-04-27T21:27:02.320Z,91.40
2019-04-27T21:29:32.649Z,91.50
2019-04-27T21:32:02.998Z,91.50
2019-04-27T21:34:33.308Z,91.40
2019-04-27T21:37:03.636Z,91.50
2019-04-27T21:39:33.962Z,91.50
2019-04-27T21:42:04.377Z,91.50
2019-04-27T21:44:34.708Z,91.50
2019-04-27T21:47:05.112Z,91.60
2019-04-27T21:49:35.440Z,91.70
2019-04-27T21:52:07.416Z,91.70
2019-04-27T21:54:41.077Z,91.70
2019-04-27T21:57:12.784Z,91.80
2019-04-27T21:59:43.312Z,91.60
2019-04-27T22:02:14.230Z,91.60
2019-04-27T22:04:44.567Z,91.60
2019-04-27T22:07:14.912Z,91.70
2019-04-27T22:09:45.235Z,91.70
2019-04-27T22:12:15.576Z,91.70
2019-04-27T22:14:45.900Z,91.80
2019-04-27T22:17:16.228Z,91.90
2019-04-27T22:19:46.552Z,92.00
2019-04-27T22:22:18.527Z,92.10
2019-04-27T22:24:48.856Z,92.10
2019-04-27T22:27:20.726Z,92.20
2019-04-27T22:29:52.679Z,92.50
2019-04-27T22:32:23.104Z,92.90
2019-04-27T22:34:53.443Z,93.00
2019-04-27T22:37:23.771Z,93.30
2019-04-27T22:39:55.738Z,93.40
2019-04-27T22:42:55.848Z,93.50
2019-04-27T22:45:27.821Z,93.60
2019-04-27T22:47:58.154Z,93.70
2019-04-27T22:50:28.489Z,93.80
2019-04-27T22:52:58.830Z,93.80
2019-04-27T22:55:30.930Z,93.90
2019-04-27T22:58:16.011Z,93.90
2019-04-27T23:00:48.054Z,94.00
2019-04-27T23:03:21.143Z,94.10
2019-04-27T23:05:51.604Z,94.20
2019-04-27T23:08:22.706Z,94.20
2019-04-27T23:10:53.148Z,94.30
2019-04-27T23:13:23.550Z,94.30
2019-04-27T23:15:55.517Z,94.40
2019-04-27T23:18:25.846Z,94.30
2019-04-27T23:21:04.140Z,94.40
2019-04-27T23:23:34.472Z,94.40
2019-04-27T23:26:04.807Z,94.40
2019-04-27T23:28:35.148Z,94.40
2019-04-27T23:31:11.049Z,94.40
2019-04-27T23:33:43.038Z,94.40
2019-04-27T23:36:13.363Z,94.50
2019-04-27T23:38:52.617Z,94.40
2019-04-27T23:41:22.954Z,94.40
2019-04-27T23:43:53.284Z,94.40
2019-04-27T23:46:27.311Z,94.40
2019-04-27T23:48:57.600Z,94.40
2019-04-27T23:51:32.271Z,94.40
2019-04-27T23:54:02.603Z,94.40
2019-04-27T23:56:32.947Z,94.60
2019-04-27T23:59:03.625Z,94.60
